EAGO2: Mountain Fork Riv, Eagletown,

                                SHEF ID:       EAGO2     Mountain Fork near Eagletown, OK
STATION TYPE: Stream Gauge
Regulating: Stage = 9.00, Flow = 9433

PRECIP STAGE RIV-FLOW WTR-TEMP BAT-LOAD
in ft cfs F volt
Ccp-Rev Ccp-Rev Ccp-Rev Ccp-Rev Ccp-Rev
(America/Chicago)
04/26 00:00 0.01 3.93 2319 62.91 12.09
04/26 01:00 0.01 3.73 2087 63.21 12.01
04/26 02:00 0.00 3.51 1846 63.34 12.01
04/26 03:00 0.00 3.29 1615 63.45 12.01
04/26 04:00 0.00 3.11 1438 63.48 12.01
04/26 05:00 0.00 2.92 1259 63.50 12.01
04/26 06:00 0.00 2.75 1112 63.37 11.93
04/26 07:00 0.00 2.59 982 63.19 11.93
04/26 08:00 0.00 2.45 873 63.09 11.93
04/26 09:00 0.00 2.32 779 63.05 12.17
04/26 10:00 0.00 2.19 692 63.10 12.57
04/26 11:00 0.00 2.08 627 63.18 12.65
04/26 12:00 0.00 1.99 577 63.23 12.57
04/26 13:00 0.00 1.89 527 63.48 12.89
04/26 14:00 0.00 1.81 490 64.27 12.89
04/26 15:00 0.00 1.74 459 64.96 12.65
04/26 16:00 0.00 1.66 425 65.39 12.41
04/26 17:00 0.00 1.61 405 65.70 12.33
04/26 18:00 0.00 1.54 378 65.89 12.33
04/26 19:00 0.00 1.48 356 66.20 12.41
04/26 20:00 0.00 1.44 341 66.27 12.17
04/26 21:00 0.00 1.61 405 66.25 12.09
04/26 22:00 0.00 2.10 638 66.25 12.09
04/26 23:00 0.00 2.36 807 65.64 12.09
Data processed at Mon 27Apr2026 04:39 GMT

NOTICE: If you are parsing this page

Please convert to using our Data API. Starting early 2026 we will be migrating to: https://water.usace.army.mil with modern pages rendered in JavaScript. When this migration completes you will no longer be able to scrape this page! CWMSDataAPI (CDA)

Timeseries IDs (TSIDs)

TSIDs used from left to right in the data table
EAGL.Precip-Inc.Total.1Hour.1Hour.Ccp-Rev
EAGL.Stage.Inst.1Hour.0.Ccp-Rev
EAGL.Flow.Inst.1Hour.0.Ccp-Rev
EAGL.Temp-Water.Inst.1Hour.0.Ccp-Rev
EAGL.Volt-Battery Load.Inst.1Hour.0.Ccp-Rev

                            

All information presented herein is the property of the government of the United States of America and may be revised or deleted at any time without prior notice. Dissemination of this information without the expressed written consent of the Public Affairs Office, Tulsa District U.S. Army Corps of Engineers is strictly prohibited. These data are gathered electronically and, as presented, have NOT undergone any form of quality control. These data are NOT guaranteed to be valid or correct.